createdAt,value
2022-11-09T00:01:34.401Z,95715.78
2022-11-09T00:04:03.164Z,95708.28
2022-11-09T00:06:31.039Z,95700.00
2022-11-09T00:09:02.640Z,95695.78
2022-11-09T00:11:32.638Z,95690.16
2022-11-09T00:13:59.302Z,95681.91
2022-11-09T00:16:25.929Z,95681.94
2022-11-09T00:18:53.876Z,95684.66
2022-11-09T00:21:23.704Z,95687.31
2022-11-09T00:23:51.181Z,95706.44
2022-11-09T00:26:18.878Z,95704.63
2022-11-09T00:28:45.735Z,95721.75
2022-11-09T00:31:15.349Z,95742.72
2022-11-09T00:33:42.292Z,95741.97
2022-11-09T00:36:15.480Z,95736.31
2022-11-09T00:38:42.698Z,95730.34
2022-11-09T00:41:11.177Z,95738.16
2022-11-09T00:43:38.226Z,95716.09
2022-11-09T00:46:06.146Z,95728.34
2022-11-09T00:48:33.622Z,95713.38
2022-11-09T00:51:02.033Z,95699.97
2022-11-09T00:53:30.153Z,95685.03
2022-11-09T00:56:02.244Z,95680.19
2022-11-09T00:58:31.346Z,95678.31
2022-11-09T01:01:00.240Z,95677.13
2022-11-09T01:03:27.250Z,95656.94
2022-11-09T01:05:53.854Z,95649.50
2022-11-09T01:08:20.563Z,95647.31
2022-11-09T01:10:48.633Z,95622.03
2022-11-09T01:13:17.709Z,95645.47
2022-11-09T01:15:47.207Z,95639.63
2022-11-09T01:18:15.868Z,95657.19
2022-11-09T01:20:44.626Z,95672.50
2022-11-09T01:23:12.933Z,95663.53
2022-11-09T01:25:40.160Z,95669.47
2022-11-09T01:28:09.966Z,95663.81
2022-11-09T01:30:38.563Z,95666.06
2022-11-09T01:33:06.528Z,95663.00
2022-11-09T01:35:38.189Z,95656.69
2022-11-09T01:38:06.588Z,95651.09
2022-11-09T01:40:34.963Z,95647.00
2022-11-09T01:43:19.705Z,95640.66
2022-11-09T01:45:51.386Z,95643.69
2022-11-09T01:48:24.200Z,95634.75
2022-11-09T01:51:01.581Z,95636.22
2022-11-09T01:53:31.722Z,95627.69
2022-11-09T01:56:02.892Z,95625.03
2022-11-09T01:58:36.098Z,95626.19
2022-11-09T02:01:03.174Z,95599.47
2022-11-09T02:03:37.730Z,95651.97
2022-11-09T02:06:07.990Z,95672.78
2022-11-09T02:08:35.677Z,95654.41
2022-11-09T02:11:14.060Z,95641.09
2022-11-09T02:13:51.583Z,95655.53
2022-11-09T02:16:18.837Z,95635.13
2022-11-09T02:18:57.599Z,95629.22
2022-11-09T02:21:28.359Z,95641.19
2022-11-09T02:23:55.113Z,95625.88
2022-11-09T02:26:44.021Z,95622.91
2022-11-09T02:29:15.863Z,95651.53
2022-11-09T02:31:47.920Z,95645.59
2022-11-09T02:34:18.519Z,95667.22
2022-11-09T02:36:45.619Z,95643.41
2022-11-09T02:39:20.758Z,95625.47
2022-11-09T02:41:51.714Z,95633.63
2022-11-09T02:44:19.406Z,95625.78
2022-11-09T02:46:46.593Z,95619.84
2022-11-09T02:49:14.437Z,95616.53
2022-11-09T02:51:41.159Z,95629.53
2022-11-09T02:54:07.856Z,95611.72
2022-11-09T02:56:34.827Z,95626.56
2022-11-09T02:59:03.353Z,95645.97
2022-11-09T03:01:31.326Z,95642.25
2022-11-09T03:03:58.057Z,95650.13
2022-11-09T03:06:34.578Z,95647.41
2022-11-09T03:09:06.420Z,95664.22
2022-11-09T03:11:34.134Z,95678.03
2022-11-09T03:14:00.813Z,95669.84
2022-11-09T03:16:28.708Z,95669.44
2022-11-09T03:18:58.155Z,95681.75
2022-11-09T03:21:25.458Z,95677.69
2022-11-09T03:23:52.745Z,95700.78
2022-11-09T03:26:19.331Z,95693.66
2022-11-09T03:28:46.188Z,95684.41
2022-11-09T03:31:13.356Z,95711.28
2022-11-09T03:33:40.011Z,95709.03
2022-11-09T03:36:09.640Z,95725.03
2022-11-09T03:38:37.339Z,95728.72
2022-11-09T03:41:04.086Z,95727.63
2022-11-09T03:43:32.070Z,95731.63
2022-11-09T03:45:58.716Z,95744.72
2022-11-09T03:48:25.323Z,95750.69
2022-11-09T03:50:51.900Z,95752.59
2022-11-09T03:53:19.785Z,95761.94
2022-11-09T03:55:46.505Z,95758.91
2022-11-09T03:58:15.878Z,95757.75
2022-11-09T04:00:42.585Z,95762.97
2022-11-09T04:03:09.160Z,95770.84
2022-11-09T04:05:36.039Z,95771.22
2022-11-09T04:08:02.616Z,95773.13
2022-11-09T04:10:29.235Z,95773.41
2022-11-09T04:12:55.908Z,95769.03
2022-11-09T04:15:22.912Z,95776.81
2022-11-09T04:18:01.771Z,95762.63
2022-11-09T04:20:30.446Z,95769.75
2022-11-09T04:23:02.166Z,95781.63
2022-11-09T04:25:32.917Z,95765.97
2022-11-09T04:28:00.619Z,95766.34
2022-11-09T04:30:28.913Z,95768.56
2022-11-09T04:32:59.896Z,95778.69
2022-11-09T04:35:28.315Z,95782.50
2022-11-09T04:37:58.994Z,95789.88
2022-11-09T04:40:28.213Z,95789.50
2022-11-09T04:42:55.376Z,95782.81
2022-11-09T04:45:22.499Z,95796.63
2022-11-09T04:47:49.173Z,95801.03
2022-11-09T04:50:15.970Z,95798.06
2022-11-09T04:52:42.557Z,95795.13
2022-11-09T04:55:09.482Z,95791.38
2022-11-09T04:57:36.119Z,95805.91
2022-11-09T05:00:03.155Z,95817.84
2022-11-09T05:02:29.845Z,95799.13
2022-11-09T05:04:56.468Z,95801.03
2022-11-09T05:07:25.948Z,95794.63
2022-11-09T05:09:52.674Z,95795.00
2022-11-09T05:12:19.312Z,95803.28
2022-11-09T05:14:45.968Z,95802.13
2022-11-09T05:17:12.590Z,95793.91
2022-11-09T05:19:39.156Z,95798.03
2022-11-09T05:22:24.153Z,95800.22
2022-11-09T05:24:51.933Z,95806.19
2022-11-09T05:27:18.780Z,95800.34
2022-11-09T05:29:45.392Z,95803.28
2022-11-09T05:32:11.994Z,95797.66
2022-11-09T05:34:38.706Z,95802.63
2022-11-09T05:37:05.267Z,95816.88
2022-11-09T05:39:31.923Z,95833.22
2022-11-09T05:41:58.467Z,95826.50
2022-11-09T05:44:25.654Z,95814.88
2022-11-09T05:46:52.247Z,95812.66
2022-11-09T05:49:18.807Z,95815.31
2022-11-09T05:51:45.510Z,95813.38
2022-11-09T05:54:12.138Z,95808.63
2022-11-09T05:56:38.747Z,95817.16
2022-11-09T05:59:05.366Z,95813.44
2022-11-09T06:01:31.955Z,95801.09
2022-11-09T06:03:58.568Z,95802.22
2022-11-09T06:06:25.337Z,95803.09
2022-11-09T06:08:51.946Z,95807.56
2022-11-09T06:11:23.523Z,95810.09
2022-11-09T06:13:52.113Z,95819.06
2022-11-09T06:16:18.751Z,95817.16
2022-11-09T06:18:45.303Z,95813.09
2022-11-09T06:21:11.992Z,95820.50
2022-11-09T06:23:38.555Z,95823.56
2022-11-09T06:26:07.390Z,95828.78
2022-11-09T06:28:34.802Z,95842.94
2022-11-09T06:31:02.833Z,95841.47
2022-11-09T06:33:34.230Z,95842.88
2022-11-09T06:36:01.816Z,95842.13
2022-11-09T06:38:28.860Z,95848.47
2022-11-09T06:40:58.157Z,95847.00
2022-11-09T06:43:25.750Z,95861.91
2022-11-09T06:45:52.687Z,95864.84
2022-11-09T06:48:20.119Z,95869.72
2022-11-09T06:50:47.118Z,95863.41
2022-11-09T06:53:16.073Z,95872.25
2022-11-09T06:55:49.054Z,95862.66
2022-11-09T06:58:17.560Z,95873.88
2022-11-09T07:00:45.114Z,95881.66
2022-11-09T07:03:20.243Z,95883.91
2022-11-09T07:05:48.325Z,95892.88
2022-11-09T07:08:16.268Z,95903.69
2022-11-09T07:10:43.202Z,95901.09
2022-11-09T07:13:10.724Z,95899.59
2022-11-09T07:15:38.399Z,95898.50
2022-11-09T07:18:06.834Z,95910.81
2022-11-09T07:20:34.318Z,95905.56
2022-11-09T07:23:00.918Z,95900.38
2022-11-09T07:25:27.624Z,95910.50
2022-11-09T07:27:54.337Z,95915.72
2022-11-09T07:30:21.340Z,95909.00
2022-11-09T07:35:34.691Z,95910.81
2022-11-09T07:38:01.967Z,95906.72
2022-11-09T07:40:29.696Z,95903.69
2022-11-09T07:43:04.786Z,95904.75
2022-11-09T07:45:33.035Z,95899.91
2022-11-09T07:48:02.025Z,95910.41
2022-11-09T07:50:30.132Z,95913.38
2022-11-09T07:52:58.033Z,95924.56
2022-11-09T07:55:25.567Z,95933.56
2022-11-09T07:57:58.825Z,95940.75
2022-11-09T08:00:27.201Z,95959.03
2022-11-09T08:02:54.481Z,95952.34
2022-11-09T08:05:21.767Z,95961.34
2022-11-09T08:07:48.443Z,95962.84
2022-11-09T08:10:15.652Z,95983.44
2022-11-09T08:12:42.182Z,96023.19
2022-11-09T08:15:09.374Z,96041.28
2022-11-09T08:17:36.018Z,96050.66
2022-11-09T08:20:03.013Z,96065.44
2022-11-09T08:22:29.676Z,96079.34
2022-11-09T08:24:56.457Z,96116.09
2022-11-09T08:27:23.495Z,96140.91
2022-11-09T08:29:50.129Z,96155.81
2022-11-09T08:32:16.719Z,96176.31
2022-11-09T08:34:47.548Z,96171.09
2022-11-09T08:37:15.543Z,96173.84
2022-11-09T08:39:42.151Z,96205.63
2022-11-09T08:42:08.766Z,96209.03
2022-11-09T08:44:35.318Z,96220.53
2022-11-09T08:47:02.228Z,96216.09
2022-11-09T08:49:28.925Z,96217.78
2022-11-09T08:51:55.571Z,96234.75
2022-11-09T08:54:22.214Z,96212.91
2022-11-09T08:56:48.808Z,96240.41
2022-11-09T08:59:18.286Z,96232.44
2022-11-09T09:01:44.916Z,96218.63
2022-11-09T09:04:11.597Z,96214.91
2022-11-09T09:06:38.292Z,96233.09
2022-11-09T09:09:05.040Z,96238.81
2022-11-09T09:11:31.734Z,96235.44
2022-11-09T09:13:58.354Z,96242.25
2022-11-09T09:16:25.225Z,96248.16
2022-11-09T09:18:51.995Z,96249.97
2022-11-09T09:21:18.587Z,96270.25
2022-11-09T09:23:48.243Z,96279.66
2022-11-09T09:26:15.480Z,96305.25
2022-11-09T09:28:42.124Z,96367.41
2022-11-09T09:31:11.115Z,96366.56
2022-11-09T09:33:40.153Z,96375.44
2022-11-09T09:36:07.037Z,96363.00
2022-11-09T09:38:33.618Z,96364.25
2022-11-09T09:41:02.696Z,96404.97
2022-11-09T09:43:44.245Z,96498.16
2022-11-09T09:46:32.652Z,96505.41
2022-11-09T09:49:07.364Z,96526.72
2022-11-09T09:51:39.785Z,96571.09
2022-11-09T09:54:20.197Z,96589.50
2022-11-09T09:56:50.605Z,96583.75
2022-11-09T09:59:42.897Z,96598.22
2022-11-09T10:02:30.538Z,96545.16
2022-11-09T10:05:12.111Z,96537.53
2022-11-09T10:07:53.822Z,96534.88
2022-11-09T10:10:44.584Z,96516.78
2022-11-09T10:13:42.011Z,96493.06
2022-11-09T10:16:32.823Z,96453.69
2022-11-09T10:19:29.389Z,96431.84
2022-11-09T10:22:27.580Z,96439.94
2022-11-09T10:28:01.113Z,96503.44
2022-11-09T10:30:29.381Z,96547.66
2022-11-09T10:33:11.313Z,96596.88
2022-11-09T10:35:45.159Z,96599.94
2022-11-09T10:38:21.087Z,96559.19
2022-11-09T10:41:23.841Z,96536.69
2022-11-09T10:44:18.054Z,96577.91
2022-11-09T10:47:03.378Z,96594.34
2022-11-09T10:50:07.333Z,96566.34
2022-11-09T10:52:52.389Z,96548.03
2022-11-09T10:55:37.851Z,96545.97
2022-11-09T10:58:39.955Z,96528.69
2022-11-09T11:01:26.471Z,96514.56
2022-11-09T11:04:24.682Z,96485.63
2022-11-09T11:07:21.826Z,96437.84
2022-11-09T11:10:17.741Z,96435.22
2022-11-09T11:13:06.149Z,96406.72
2022-11-09T11:15:51.830Z,96416.88
2022-11-09T11:18:36.910Z,96428.09
2022-11-09T11:21:23.734Z,96441.25
2022-11-09T11:24:14.944Z,96503.72
2022-11-09T11:27:10.419Z,96454.78
2022-11-09T11:30:05.336Z,96472.72
2022-11-09T11:32:51.186Z,96450.06
2022-11-09T11:35:43.258Z,96408.34
2022-11-09T11:38:35.281Z,96340.56
2022-11-09T11:41:42.734Z,96285.66
2022-11-09T11:45:03.191Z,96247.09
2022-11-09T11:48:01.071Z,96220.09
2022-11-09T11:50:55.327Z,96218.63
2022-11-09T11:53:59.379Z,96211.94
2022-11-09T11:56:55.614Z,96212.00
2022-11-09T12:00:01.932Z,96227.69
2022-11-09T12:03:01.941Z,96231.38
2022-11-09T12:06:43.804Z,96229.91
2022-11-09T12:09:48.387Z,96271.91
2022-11-09T12:13:00.007Z,96295.22
2022-11-09T12:15:54.245Z,96323.50
2022-11-09T12:18:48.913Z,96341.91
2022-11-09T12:21:40.412Z,96328.59
2022-11-09T12:25:03.356Z,96348.56
2022-11-09T12:28:14.693Z,96351.88
2022-11-09T12:31:35.314Z,96374.13
2022-11-09T12:34:29.325Z,96416.69
2022-11-09T12:37:20.105Z,96485.03
2022-11-09T12:40:21.654Z,96600.56
2022-11-09T12:43:19.732Z,96574.56
2022-11-09T12:46:06.545Z,96585.25
2022-11-09T12:48:54.493Z,96605.78
2022-11-09T12:51:39.953Z,96635.91
2022-11-09T12:54:26.101Z,96612.53
2022-11-09T12:57:16.181Z,96628.94
2022-11-09T13:00:01.729Z,96604.34
2022-11-09T13:02:56.564Z,96667.28
2022-11-09T13:05:43.173Z,96637.91
2022-11-09T13:08:30.771Z,96618.16
2022-11-09T13:11:22.516Z,96595.06
2022-11-09T13:14:22.794Z,96647.69
2022-11-09T13:17:26.277Z,96663.75
2022-11-09T13:20:53.827Z,96627.34
2022-11-09T13:26:48.634Z,96664.44
2022-11-09T13:29:39.569Z,96656.84
2022-11-09T13:32:30.033Z,96643.53
2022-11-09T13:35:39.926Z,96663.28
2022-11-09T13:38:32.889Z,96668.22
2022-11-09T13:41:31.888Z,96644.50
2022-11-09T13:44:25.311Z,96633.91
2022-11-09T13:47:26.056Z,96652.28
2022-11-09T13:50:18.801Z,96653.38
2022-11-09T13:53:04.077Z,96616.03
2022-11-09T13:55:49.017Z,96627.88
2022-11-09T13:58:37.505Z,96622.84
2022-11-09T14:01:36.994Z,96646.72
2022-11-09T14:04:35.576Z,96655.28
2022-11-09T14:07:27.300Z,96686.94
2022-11-09T14:10:21.495Z,96688.38
2022-11-09T14:13:25.501Z,96718.28
2022-11-09T14:16:13.410Z,96740.66
2022-11-09T14:18:58.746Z,96748.16
2022-11-09T14:21:46.030Z,96742.91
2022-11-09T14:24:34.934Z,96755.91
2022-11-09T14:27:22.492Z,96732.06
2022-11-09T14:30:19.101Z,96692.50
2022-11-09T14:33:20.842Z,96664.25
2022-11-09T14:36:06.442Z,96663.41
2022-11-09T14:38:51.579Z,96682.69
2022-11-09T14:41:37.118Z,96721.41
2022-11-09T14:44:35.733Z,96706.72
2022-11-09T14:47:28.849Z,96734.72
2022-11-09T14:50:18.985Z,96724.53
2022-11-09T14:53:05.807Z,96729.00
2022-11-09T14:55:52.386Z,96722.28
2022-11-09T14:58:41.371Z,96760.09
2022-11-09T15:01:27.343Z,96744.88
2022-11-09T15:04:21.329Z,96729.75
2022-11-09T15:07:07.024Z,96701.63
2022-11-09T15:09:57.499Z,96698.25
2022-11-09T15:12:51.712Z,96693.03
2022-11-09T15:15:38.437Z,96681.78
2022-11-09T15:18:33.939Z,96635.47
2022-11-09T15:21:32.223Z,96641.97
2022-11-09T15:24:19.584Z,96639.22
2022-11-09T15:27:35.394Z,96640.63
2022-11-09T15:30:53.723Z,96615.75
2022-11-09T15:33:52.380Z,96596.63
2022-11-09T15:36:39.760Z,96596.41
2022-11-09T15:39:27.218Z,96583.19
2022-11-09T15:42:13.801Z,96608.69
2022-11-09T15:45:00.323Z,96619.19
2022-11-09T15:47:55.382Z,96646.19
2022-11-09T15:50:40.868Z,96648.47
2022-11-09T15:53:26.722Z,96629.38
2022-11-09T15:56:24.157Z,96644.00
2022-11-09T15:59:25.338Z,96626.63
2022-11-09T16:02:15.108Z,96615.16
2022-11-09T16:05:00.460Z,96610.38
2022-11-09T16:07:53.207Z,96614.19
2022-11-09T16:10:40.469Z,96609.72
2022-11-09T16:13:25.680Z,96616.81
2022-11-09T16:16:12.674Z,96603.75
2022-11-09T16:18:58.182Z,96617.09
2022-11-09T16:21:43.428Z,96618.16
2022-11-09T16:24:29.450Z,96602.44
2022-11-09T16:27:42.912Z,96593.63
2022-11-09T16:30:21.147Z,96576.78
2022-11-09T16:33:06.514Z,96584.09
2022-11-09T16:35:53.519Z,96583.78
2022-11-09T16:38:51.599Z,96590.84
2022-11-09T16:41:40.860Z,96588.41
2022-11-09T16:44:26.262Z,96595.47
2022-11-09T16:47:14.532Z,96596.13
2022-11-09T16:49:59.567Z,96584.72
2022-11-09T16:52:45.235Z,96599.09
2022-11-09T16:55:30.664Z,96597.31
2022-11-09T16:58:16.075Z,96605.56
2022-11-09T17:01:11.459Z,96609.44
2022-11-09T17:03:57.952Z,96600.47
2022-11-09T17:06:43.358Z,96596.22
2022-11-09T17:09:33.833Z,96596.22
2022-11-09T17:12:19.051Z,96594.72
2022-11-09T17:15:04.362Z,96586.41
2022-11-09T17:17:49.997Z,96588.34
2022-11-09T17:20:34.876Z,96587.91
2022-11-09T17:23:19.975Z,96612.63
2022-11-09T17:26:07.165Z,96631.47
2022-11-09T17:28:52.741Z,96645.25
2022-11-09T17:31:38.414Z,96664.25
2022-11-09T17:34:23.496Z,96653.56
2022-11-09T17:37:08.847Z,96670.09
2022-11-09T17:39:53.674Z,96700.81
2022-11-09T17:42:38.785Z,96716.19
2022-11-09T17:45:23.883Z,96723.88
2022-11-09T17:48:08.872Z,96717.78
2022-11-09T17:50:53.891Z,96716.50
2022-11-09T17:53:39.732Z,96715.84
2022-11-09T17:56:25.433Z,96715.13
2022-11-09T17:59:11.413Z,96706.66
2022-11-09T18:01:56.927Z,96709.09
2022-11-09T18:04:42.163Z,96706.19
2022-11-09T18:07:27.777Z,96711.19
2022-11-09T18:10:12.941Z,96710.81
2022-11-09T18:12:57.905Z,96701.78
2022-11-09T18:15:43.191Z,96694.38
2022-11-09T18:18:29.246Z,96703.13
2022-11-09T18:21:19.642Z,96695.13
2022-11-09T18:24:05.474Z,96699.16
2022-11-09T18:26:50.764Z,96710.56
2022-11-09T18:29:35.861Z,96710.88
2022-11-09T18:32:21.120Z,96734.44
2022-11-09T18:35:06.884Z,96716.50
2022-11-09T18:37:52.293Z,96726.16
2022-11-09T18:40:37.506Z,96734.44
2022-11-09T18:43:23.020Z,96731.59
2022-11-09T18:46:11.235Z,96735.09
2022-11-09T18:48:56.514Z,96743.47
2022-11-09T18:51:42.688Z,96736.53
2022-11-09T18:54:28.443Z,96728.59
2022-11-09T18:57:18.596Z,96738.91
2022-11-09T19:00:05.594Z,96738.50
2022-11-09T19:02:51.051Z,96742.38
2022-11-09T19:05:39.506Z,96731.88
2022-11-09T19:08:43.300Z,96729.34
2022-11-09T19:11:30.216Z,96738.06
2022-11-09T19:14:15.700Z,96740.56
2022-11-09T19:17:01.067Z,96737.41
2022-11-09T19:19:46.408Z,96730.16
2022-11-09T19:22:31.579Z,96732.31
2022-11-09T19:25:16.713Z,96741.63
2022-11-09T19:28:02.138Z,96753.66
2022-11-09T19:30:47.532Z,96764.06
2022-11-09T19:33:32.727Z,96776.25
2022-11-09T19:36:34.061Z,96779.03
2022-11-09T19:39:19.246Z,96762.13
2022-11-09T19:42:04.656Z,96770.25
2022-11-09T19:44:55.162Z,96767.66
2022-11-09T19:47:42.067Z,96779.59
2022-11-09T19:50:27.445Z,96790.31
2022-11-09T19:53:12.376Z,96786.88
2022-11-09T19:56:07.067Z,96785.88
2022-11-09T19:58:54.731Z,96802.16
2022-11-09T20:01:40.201Z,96798.03
2022-11-09T20:04:25.616Z,96807.91
2022-11-09T20:07:10.646Z,96817.22
2022-11-09T20:09:56.089Z,96818.63
2022-11-09T20:12:50.417Z,96816.34
2022-11-09T20:15:36.407Z,96814.28
2022-11-09T20:18:23.944Z,96804.94
2022-11-09T20:21:09.133Z,96805.59
2022-11-09T20:23:54.870Z,96819.69
2022-11-09T20:26:42.342Z,96833.56
2022-11-09T20:29:27.400Z,96840.84
2022-11-09T20:32:12.613Z,96837.03
2022-11-09T20:34:57.712Z,96834.88
2022-11-09T20:37:42.713Z,96841.69
2022-11-09T20:40:27.879Z,96842.09
2022-11-09T20:43:12.976Z,96849.34
2022-11-09T20:46:14.168Z,96842.72
2022-11-09T20:49:01.252Z,96833.06
2022-11-09T20:51:46.845Z,96827.50
2022-11-09T20:54:32.090Z,96833.69
2022-11-09T20:57:17.012Z,96822.56
2022-11-09T21:00:02.296Z,96821.81
2022-11-09T21:02:48.223Z,96816.84
2022-11-09T21:05:33.510Z,96798.19
2022-11-09T21:08:19.046Z,96804.06
2022-11-09T21:11:06.251Z,96811.03
2022-11-09T21:13:52.102Z,96815.56
2022-11-09T21:16:37.055Z,96811.88
2022-11-09T21:19:21.945Z,96822.50
2022-11-09T21:22:07.288Z,96825.88
2022-11-09T21:25:11.124Z,96839.00
2022-11-09T21:28:15.176Z,96850.59
2022-11-09T21:31:02.154Z,96846.91
2022-11-09T21:33:47.115Z,96855.34
2022-11-09T21:36:31.940Z,96856.25
2022-11-09T21:39:17.189Z,96858.06
2022-11-09T21:42:03.383Z,96853.69
2022-11-09T21:44:48.478Z,96859.69
2022-11-09T21:47:33.409Z,96852.09
2022-11-09T21:50:18.451Z,96856.06
2022-11-09T21:53:03.854Z,96850.56
2022-11-09T21:55:49.012Z,96847.66
2022-11-09T21:58:34.506Z,96850.97
2022-11-09T22:01:19.887Z,96855.34
2022-11-09T22:04:05.372Z,96868.03
2022-11-09T22:06:50.597Z,96865.31
2022-11-09T22:10:05.902Z,96875.84
2022-11-09T22:13:00.316Z,96889.59
2022-11-09T22:16:04.483Z,96896.09
2022-11-09T22:19:08.521Z,96894.00
2022-11-09T22:21:53.626Z,96887.38
2022-11-09T22:24:38.620Z,96897.91
2022-11-09T22:27:23.851Z,96895.06
2022-11-09T22:30:09.547Z,96899.06
2022-11-09T22:32:54.891Z,96887.97
2022-11-09T22:35:39.837Z,96884.28
2022-11-09T22:38:25.040Z,96884.94
2022-11-09T22:41:12.909Z,96888.63
2022-11-09T22:43:58.174Z,96889.53
2022-11-09T22:46:43.634Z,96895.78
2022-11-09T22:49:28.930Z,96885.16
2022-11-09T22:52:14.013Z,96888.28
2022-11-09T22:54:58.945Z,96884.28
2022-11-09T22:57:43.914Z,96896.69
2022-11-09T23:00:28.931Z,96882.22
2022-11-09T23:03:14.565Z,96885.59
2022-11-09T23:06:05.819Z,96883.50
2022-11-09T23:08:51.279Z,96880.84
2022-11-09T23:11:36.529Z,96890.41
2022-11-09T23:14:41.659Z,96897.34
2022-11-09T23:17:45.401Z,96896.16
2022-11-09T23:20:35.468Z,96895.97
2022-11-09T23:23:21.567Z,96888.13
2022-11-09T23:26:07.905Z,96903.97
2022-11-09T23:28:53.334Z,96918.44
2022-11-09T23:31:38.267Z,96915.00
2022-11-09T23:34:23.315Z,96911.75
2022-11-09T23:37:08.538Z,96912.03
2022-11-09T23:39:53.801Z,96906.00
2022-11-09T23:42:38.766Z,96906.47
2022-11-09T23:45:23.759Z,96903.97
2022-11-09T23:48:15.187Z,96902.75
2022-11-09T23:51:01.806Z,96926.44
2022-11-09T23:53:47.187Z,96919.28
2022-11-09T23:56:32.309Z,96931.69
2022-11-09T23:59:17.595Z,96931.41
